sensor_id;sensor_type;location;lat;lon;timestamp;P1;durP1;ratioP1;P2;durP2;ratioP2
41532;SDS011;27262;-35.248;149.138;2022-08-19T00:00:43;2.55;;;0.30;;
41532;SDS011;27262;-35.248;149.138;2022-08-19T00:03:14;0.47;;;0.45;;
41532;SDS011;27262;-35.248;149.138;2022-08-19T00:05:44;4.25;;;0.40;;
41532;SDS011;27262;-35.248;149.138;2022-08-19T00:08:14;1.80;;;0.30;;
41532;SDS011;27262;-35.248;149.138;2022-08-19T00:10:45;2.17;;;0.30;;
41532;SDS011;27262;-35.248;149.138;2022-08-19T00:13:16;0.90;;;0.43;;
41532;SDS011;27262;-35.248;149.138;2022-08-19T00:15:47;1.40;;;0.20;;
41532;SDS011;27262;-35.248;149.138;2022-08-19T00:18:17;3.53;;;0.45;;
41532;SDS011;27262;-35.248;149.138;2022-08-19T00:20:47;1.17;;;0.22;;
41532;SDS011;27262;-35.248;149.138;2022-08-19T00:23:17;2.05;;;0.20;;
41532;SDS011;27262;-35.248;149.138;2022-08-19T00:25:48;2.28;;;0.30;;
41532;SDS011;27262;-35.248;149.138;2022-08-19T00:28:19;0.45;;;0.20;;
41532;SDS011;27262;-35.248;149.138;2022-08-19T00:30:49;0.95;;;0.20;;
41532;SDS011;27262;-35.248;149.138;2022-08-19T00:33:21;0.52;;;0.25;;
41532;SDS011;27262;-35.248;149.138;2022-08-19T00:35:51;0.20;;;0.20;;
41532;SDS011;27262;-35.248;149.138;2022-08-19T00:38:24;0.20;;;0.20;;
41532;SDS011;27262;-35.248;149.138;2022-08-19T00:41:04;0.50;;;0.20;;
41532;SDS011;27262;-35.248;149.138;2022-08-19T00:43:35;0.77;;;0.32;;
41532;SDS011;27262;-35.248;149.138;2022-08-19T00:46:07;0.65;;;0.20;;
41532;SDS011;27262;-35.248;149.138;2022-08-19T00:48:37;1.48;;;0.30;;
41532;SDS011;27262;-35.248;149.138;2022-08-19T00:51:08;1.15;;;0.40;;
41532;SDS011;27262;-35.248;149.138;2022-08-19T00:53:38;1.52;;;0.25;;
41532;SDS011;27262;-35.248;149.138;2022-08-19T00:56:09;0.85;;;0.30;;
41532;SDS011;27262;-35.248;149.138;2022-08-19T00:58:40;1.30;;;0.30;;
41532;SDS011;27262;-35.248;149.138;2022-08-19T01:01:10;2.80;;;0.30;;
41532;SDS011;27262;-35.248;149.138;2022-08-19T01:03:41;1.25;;;0.22;;
41532;SDS011;27262;-35.248;149.138;2022-08-19T01:06:25;0.75;;;0.20;;
41532;SDS011;27262;-35.248;149.138;2022-08-19T01:08:55;0.47;;;0.22;;
41532;SDS011;27262;-35.248;149.138;2022-08-19T01:11:29;2.80;;;0.30;;
41532;SDS011;27262;-35.248;149.138;2022-08-19T01:14:02;2.17;;;0.22;;
41532;SDS011;27262;-35.248;149.138;2022-08-19T01:16:33;3.03;;;0.60;;
41532;SDS011;27262;-35.248;149.138;2022-08-19T01:19:20;1.33;;;0.50;;
41532;SDS011;27262;-35.248;149.138;2022-08-19T01:25:06;1.65;;;0.52;;
41532;SDS011;27262;-35.248;149.138;2022-08-19T01:27:43;1.98;;;0.30;;
41532;SDS011;27262;-35.248;149.138;2022-08-19T01:30:21;1.42;;;0.40;;
41532;SDS011;27262;-35.248;149.138;2022-08-19T01:32:57;1.38;;;0.20;;
41532;SDS011;27262;-35.248;149.138;2022-08-19T01:35:29;1.90;;;0.40;;
41532;SDS011;27262;-35.248;149.138;2022-08-19T01:38:02;0.35;;;0.20;;
41532;SDS011;27262;-35.248;149.138;2022-08-19T01:40:39;0.30;;;0.15;;
41532;SDS011;27262;-35.248;149.138;2022-08-19T01:43:10;0.32;;;0.20;;
41532;SDS011;27262;-35.248;149.138;2022-08-19T01:45:40;1.80;;;0.20;;
41532;SDS011;27262;-35.248;149.138;2022-08-19T01:48:12;0.30;;;0.20;;
41532;SDS011;27262;-35.248;149.138;2022-08-19T01:50:42;0.95;;;0.30;;
41532;SDS011;27262;-35.248;149.138;2022-08-19T01:53:13;0.63;;;0.20;;
41532;SDS011;27262;-35.248;149.138;2022-08-19T01:55:44;0.20;;;0.20;;
41532;SDS011;27262;-35.248;149.138;2022-08-19T01:58:17;0.90;;;0.20;;
41532;SDS011;27262;-35.248;149.138;2022-08-19T02:00:49;1.60;;;0.28;;
41532;SDS011;27262;-35.248;149.138;2022-08-19T02:03:20;1.08;;;0.17;;
41532;SDS011;27262;-35.248;149.138;2022-08-19T02:05:55;2.25;;;0.22;;
41532;SDS011;27262;-35.248;149.138;2022-08-19T02:08:37;1.40;;;0.30;;
41532;SDS011;27262;-35.248;149.138;2022-08-19T02:11:21;1.98;;;0.20;;
41532;SDS011;27262;-35.248;149.138;2022-08-19T02:13:56;3.88;;;0.30;;
41532;SDS011;27262;-35.248;149.138;2022-08-19T02:16:27;0.80;;;0.20;;
41532;SDS011;27262;-35.248;149.138;2022-08-19T02:18:58;0.65;;;0.20;;
41532;SDS011;27262;-35.248;149.138;2022-08-19T02:21:29;1.60;;;0.20;;
41532;SDS011;27262;-35.248;149.138;2022-08-19T02:24:00;0.30;;;0.20;;
41532;SDS011;27262;-35.248;149.138;2022-08-19T02:26:31;0.20;;;0.20;;
41532;SDS011;27262;-35.248;149.138;2022-08-19T02:29:02;0.68;;;0.20;;
41532;SDS011;27262;-35.248;149.138;2022-08-19T02:31:33;0.10;;;0.10;;
41532;SDS011;27262;-35.248;149.138;2022-08-19T02:34:03;2.08;;;0.20;;
41532;SDS011;27262;-35.248;149.138;2022-08-19T02:36:33;0.35;;;0.20;;
41532;SDS011;27262;-35.248;149.138;2022-08-19T02:39:08;0.60;;;0.20;;
41532;SDS011;27262;-35.248;149.138;2022-08-19T02:41:39;1.70;;;0.20;;
41532;SDS011;27262;-35.248;149.138;2022-08-19T02:44:09;0.50;;;0.17;;
41532;SDS011;27262;-35.248;149.138;2022-08-19T02:46:57;0.73;;;0.20;;
41532;SDS011;27262;-35.248;149.138;2022-08-19T02:49:31;1.85;;;0.35;;
41532;SDS011;27262;-35.248;149.138;2022-08-19T02:52:02;0.30;;;0.20;;
41532;SDS011;27262;-35.248;149.138;2022-08-19T02:54:32;0.20;;;0.20;;
41532;SDS011;27262;-35.248;149.138;2022-08-19T02:57:03;1.00;;;0.10;;
41532;SDS011;27262;-35.248;149.138;2022-08-19T02:59:34;1.92;;;0.30;;
41532;SDS011;27262;-35.248;149.138;2022-08-19T03:02:05;1.85;;;0.20;;
41532;SDS011;27262;-35.248;149.138;2022-08-19T03:04:35;4.40;;;0.40;;
41532;SDS011;27262;-35.248;149.138;2022-08-19T03:07:05;2.10;;;0.30;;
41532;SDS011;27262;-35.248;149.138;2022-08-19T03:09:37;2.75;;;0.30;;
41532;SDS011;27262;-35.248;149.138;2022-08-19T03:12:07;0.60;;;0.20;;
41532;SDS011;27262;-35.248;149.138;2022-08-19T03:14:38;0.80;;;0.20;;
41532;SDS011;27262;-35.248;149.138;2022-08-19T03:17:09;4.70;;;0.40;;
41532;SDS011;27262;-35.248;149.138;2022-08-19T03:19:41;1.15;;;0.30;;
41532;SDS011;27262;-35.248;149.138;2022-08-19T03:22:11;1.40;;;0.32;;
41532;SDS011;27262;-35.248;149.138;2022-08-19T03:24:42;2.83;;;0.60;;
41532;SDS011;27262;-35.248;149.138;2022-08-19T03:27:12;4.28;;;0.30;;
41532;SDS011;27262;-35.248;149.138;2022-08-19T03:29:43;3.30;;;0.30;;
41532;SDS011;27262;-35.248;149.138;2022-08-19T03:32:15;3.13;;;0.30;;
41532;SDS011;27262;-35.248;149.138;2022-08-19T03:34:59;0.98;;;0.20;;
41532;SDS011;27262;-35.248;149.138;2022-08-19T03:37:29;0.17;;;0.17;;
41532;SDS011;27262;-35.248;149.138;2022-08-19T03:39:59;1.90;;;0.40;;
41532;SDS011;27262;-35.248;149.138;2022-08-19T03:42:32;3.28;;;0.35;;
41532;SDS011;27262;-35.248;149.138;2022-08-19T03:45:15;1.45;;;0.20;;
41532;SDS011;27262;-35.248;149.138;2022-08-19T03:47:46;5.78;;;0.40;;
41532;SDS011;27262;-35.248;149.138;2022-08-19T03:50:16;2.38;;;0.20;;
41532;SDS011;27262;-35.248;149.138;2022-08-19T03:52:51;1.40;;;0.20;;
41532;SDS011;27262;-35.248;149.138;2022-08-19T03:55:21;2.28;;;0.38;;
41532;SDS011;27262;-35.248;149.138;2022-08-19T03:57:52;1.75;;;0.45;;
41532;SDS011;27262;-35.248;149.138;2022-08-19T04:00:25;2.08;;;0.30;;
41532;SDS011;27262;-35.248;149.138;2022-08-19T04:02:56;1.30;;;0.40;;
41532;SDS011;27262;-35.248;149.138;2022-08-19T04:05:30;2.90;;;0.30;;
41532;SDS011;27262;-35.248;149.138;2022-08-19T04:08:00;0.77;;;0.25;;
41532;SDS011;27262;-35.248;149.138;2022-08-19T04:10:30;2.03;;;0.20;;
41532;SDS011;27262;-35.248;149.138;2022-08-19T04:13:08;3.80;;;0.40;;
41532;SDS011;27262;-35.248;149.138;2022-08-19T04:15:40;5.60;;;0.47;;
41532;SDS011;27262;-35.248;149.138;2022-08-19T04:18:12;10.55;;;0.80;;
41532;SDS011;27262;-35.248;149.138;2022-08-19T04:20:43;3.17;;;0.30;;
41532;SDS011;27262;-35.248;149.138;2022-08-19T04:23:15;3.20;;;0.40;;
41532;SDS011;27262;-35.248;149.138;2022-08-19T04:25:47;0.43;;;0.30;;
41532;SDS011;27262;-35.248;149.138;2022-08-19T04:28:18;3.72;;;0.40;;
41532;SDS011;27262;-35.248;149.138;2022-08-19T04:30:49;3.92;;;0.45;;
41532;SDS011;27262;-35.248;149.138;2022-08-19T04:33:22;3.10;;;0.38;;
41532;SDS011;27262;-35.248;149.138;2022-08-19T04:35:54;3.90;;;0.30;;
41532;SDS011;27262;-35.248;149.138;2022-08-19T04:38:26;1.42;;;0.30;;
41532;SDS011;27262;-35.248;149.138;2022-08-19T04:40:57;0.57;;;0.20;;
41532;SDS011;27262;-35.248;149.138;2022-08-19T04:43:45;1.33;;;0.22;;
41532;SDS011;27262;-35.248;149.138;2022-08-19T04:46:17;2.85;;;0.40;;
41532;SDS011;27262;-35.248;149.138;2022-08-19T04:49:06;1.50;;;0.20;;
41532;SDS011;27262;-35.248;149.138;2022-08-19T04:51:43;3.00;;;0.30;;
41532;SDS011;27262;-35.248;149.138;2022-08-19T04:54:18;1.52;;;0.43;;
41532;SDS011;27262;-35.248;149.138;2022-08-19T04:57:03;1.08;;;0.20;;
41532;SDS011;27262;-35.248;149.138;2022-08-19T04:59:36;1.05;;;0.20;;
41532;SDS011;27262;-35.248;149.138;2022-08-19T05:02:09;0.30;;;0.17;;
41532;SDS011;27262;-35.248;149.138;2022-08-19T05:04:40;1.20;;;0.20;;
41532;SDS011;27262;-35.248;149.138;2022-08-19T05:07:10;3.28;;;0.43;;
41532;SDS011;27262;-35.248;149.138;2022-08-19T05:09:40;4.22;;;0.20;;
41532;SDS011;27262;-35.248;149.138;2022-08-19T05:12:24;1.77;;;0.30;;
41532;SDS011;27262;-35.248;149.138;2022-08-19T05:14:57;0.70;;;0.20;;
41532;SDS011;27262;-35.248;149.138;2022-08-19T05:17:29;1.27;;;0.10;;
41532;SDS011;27262;-35.248;149.138;2022-08-19T05:20:05;0.80;;;0.30;;
41532;SDS011;27262;-35.248;149.138;2022-08-19T05:22:53;2.83;;;0.45;;
41532;SDS011;27262;-35.248;149.138;2022-08-19T05:25:24;2.92;;;0.30;;
41532;SDS011;27262;-35.248;149.138;2022-08-19T05:27:54;5.30;;;0.43;;
41532;SDS011;27262;-35.248;149.138;2022-08-19T05:30:25;4.90;;;0.43;;
41532;SDS011;27262;-35.248;149.138;2022-08-19T05:33:12;5.00;;;0.40;;
41532;SDS011;27262;-35.248;149.138;2022-08-19T05:35:43;2.00;;;0.47;;
41532;SDS011;27262;-35.248;149.138;2022-08-19T05:38:15;1.17;;;0.30;;
41532;SDS011;27262;-35.248;149.138;2022-08-19T05:40:46;2.25;;;0.30;;
41532;SDS011;27262;-35.248;149.138;2022-08-19T05:43:18;1.25;;;0.20;;
41532;SDS011;27262;-35.248;149.138;2022-08-19T05:45:49;1.65;;;0.40;;
41532;SDS011;27262;-35.248;149.138;2022-08-19T05:48:19;3.88;;;0.30;;
41532;SDS011;27262;-35.248;149.138;2022-08-19T05:50:50;2.35;;;0.30;;
41532;SDS011;27262;-35.248;149.138;2022-08-19T05:53:21;1.35;;;0.22;;
41532;SDS011;27262;-35.248;149.138;2022-08-19T05:55:51;0.85;;;0.35;;
41532;SDS011;27262;-35.248;149.138;2022-08-19T05:58:23;1.05;;;0.35;;
41532;SDS011;27262;-35.248;149.138;2022-08-19T06:00:55;2.38;;;0.30;;
41532;SDS011;27262;-35.248;149.138;2022-08-19T06:03:25;0.57;;;0.30;;
41532;SDS011;27262;-35.248;149.138;2022-08-19T06:05:56;1.05;;;0.30;;
41532;SDS011;27262;-35.248;149.138;2022-08-19T06:08:28;2.58;;;0.20;;
41532;SDS011;27262;-35.248;149.138;2022-08-19T06:11:22;0.60;;;0.30;;
41532;SDS011;27262;-35.248;149.138;2022-08-19T06:14:05;2.38;;;0.20;;
41532;SDS011;27262;-35.248;149.138;2022-08-19T06:16:42;1.70;;;0.30;;
41532;SDS011;27262;-35.248;149.138;2022-08-19T06:19:14;0.60;;;0.22;;
41532;SDS011;27262;-35.248;149.138;2022-08-19T06:21:47;0.57;;;0.13;;
41532;SDS011;27262;-35.248;149.138;2022-08-19T06:24:20;0.28;;;0.15;;
41532;SDS011;27262;-35.248;149.138;2022-08-19T06:26:53;0.30;;;0.20;;
41532;SDS011;27262;-35.248;149.138;2022-08-19T06:29:27;1.65;;;0.25;;
41532;SDS011;27262;-35.248;149.138;2022-08-19T06:31:59;0.68;;;0.20;;
41532;SDS011;27262;-35.248;149.138;2022-08-19T06:34:33;0.50;;;0.20;;
41532;SDS011;27262;-35.248;149.138;2022-08-19T06:37:04;1.23;;;0.25;;
41532;SDS011;27262;-35.248;149.138;2022-08-19T06:39:37;0.30;;;0.10;;
41532;SDS011;27262;-35.248;149.138;2022-08-19T06:42:10;0.30;;;0.20;;
41532;SDS011;27262;-35.248;149.138;2022-08-19T06:44:48;0.70;;;0.35;;
41532;SDS011;27262;-35.248;149.138;2022-08-19T06:47:20;2.83;;;0.50;;
41532;SDS011;27262;-35.248;149.138;2022-08-19T06:49:55;0.30;;;0.20;;
41532;SDS011;27262;-35.248;149.138;2022-08-19T06:52:34;2.00;;;0.43;;
41532;SDS011;27262;-35.248;149.138;2022-08-19T06:55:05;7.22;;;0.38;;
41532;SDS011;27262;-35.248;149.138;2022-08-19T06:57:35;1.35;;;0.20;;
41532;SDS011;27262;-35.248;149.138;2022-08-19T07:00:06;2.65;;;0.35;;
41532;SDS011;27262;-35.248;149.138;2022-08-19T07:02:43;2.50;;;0.28;;
41532;SDS011;27262;-35.248;149.138;2022-08-19T07:05:23;1.88;;;0.50;;
41532;SDS011;27262;-35.248;149.138;2022-08-19T07:07:53;3.65;;;0.40;;
41532;SDS011;27262;-35.248;149.138;2022-08-19T07:10:30;4.07;;;0.28;;
41532;SDS011;27262;-35.248;149.138;2022-08-19T07:13:01;0.80;;;0.43;;
41532;SDS011;27262;-35.248;149.138;2022-08-19T07:15:32;1.48;;;0.30;;
41532;SDS011;27262;-35.248;149.138;2022-08-19T07:18:05;2.35;;;0.30;;
41532;SDS011;27262;-35.248;149.138;2022-08-19T07:20:38;2.58;;;0.30;;
41532;SDS011;27262;-35.248;149.138;2022-08-19T07:23:10;1.25;;;0.20;;
41532;SDS011;27262;-35.248;149.138;2022-08-19T07:25:42;4.72;;;0.30;;
41532;SDS011;27262;-35.248;149.138;2022-08-19T07:28:19;1.35;;;0.40;;
41532;SDS011;27262;-35.248;149.138;2022-08-19T07:30:53;3.40;;;0.38;;
41532;SDS011;27262;-35.248;149.138;2022-08-19T07:33:24;0.60;;;0.10;;
41532;SDS011;27262;-35.248;149.138;2022-08-19T07:35:55;3.35;;;0.28;;
41532;SDS011;27262;-35.248;149.138;2022-08-19T07:38:25;4.38;;;0.30;;
41532;SDS011;27262;-35.248;149.138;2022-08-19T07:40:56;2.50;;;0.20;;
41532;SDS011;27262;-35.248;149.138;2022-08-19T07:43:27;0.82;;;0.30;;
41532;SDS011;27262;-35.248;149.138;2022-08-19T07:46:01;4.85;;;0.47;;
41532;SDS011;27262;-35.248;149.138;2022-08-19T07:48:31;1.10;;;0.40;;
41532;SDS011;27262;-35.248;149.138;2022-08-19T07:51:03;5.68;;;0.65;;
41532;SDS011;27262;-35.248;149.138;2022-08-19T07:53:40;0.30;;;0.30;;
41532;SDS011;27262;-35.248;149.138;2022-08-19T07:56:13;2.53;;;0.60;;
41532;SDS011;27262;-35.248;149.138;2022-08-19T07:58:45;3.08;;;0.30;;
41532;SDS011;27262;-35.248;149.138;2022-08-19T08:01:23;5.55;;;0.70;;
41532;SDS011;27262;-35.248;149.138;2022-08-19T08:03:57;5.22;;;0.55;;
41532;SDS011;27262;-35.248;149.138;2022-08-19T08:06:46;3.78;;;0.70;;
41532;SDS011;27262;-35.248;149.138;2022-08-19T08:09:37;3.15;;;0.40;;
41532;SDS011;27262;-35.248;149.138;2022-08-19T08:12:16;4.80;;;0.63;;
41532;SDS011;27262;-35.248;149.138;2022-08-19T08:15:02;4.03;;;0.80;;
41532;SDS011;27262;-35.248;149.138;2022-08-19T08:17:38;4.78;;;0.32;;
41532;SDS011;27262;-35.248;149.138;2022-08-19T08:20:17;2.90;;;0.40;;
41532;SDS011;27262;-35.248;149.138;2022-08-19T08:22:48;1.23;;;0.20;;
41532;SDS011;27262;-35.248;149.138;2022-08-19T08:25:36;3.38;;;0.60;;
41532;SDS011;27262;-35.248;149.138;2022-08-19T08:28:06;4.93;;;0.35;;
41532;SDS011;27262;-35.248;149.138;2022-08-19T08:30:44;1.40;;;0.40;;
41532;SDS011;27262;-35.248;149.138;2022-08-19T08:33:21;2.22;;;0.47;;
41532;SDS011;27262;-35.248;149.138;2022-08-19T08:36:07;5.70;;;0.80;;
41532;SDS011;27262;-35.248;149.138;2022-08-19T08:38:38;3.15;;;0.50;;
41532;SDS011;27262;-35.248;149.138;2022-08-19T08:44:01;1.65;;;0.40;;
41532;SDS011;27262;-35.248;149.138;2022-08-19T08:46:47;2.40;;;0.45;;
41532;SDS011;27262;-35.248;149.138;2022-08-19T08:49:29;2.67;;;0.70;;
41532;SDS011;27262;-35.248;149.138;2022-08-19T08:52:04;3.80;;;0.85;;
41532;SDS011;27262;-35.248;149.138;2022-08-19T08:54:42;2.00;;;0.60;;
41532;SDS011;27262;-35.248;149.138;2022-08-19T08:57:28;1.92;;;0.70;;
41532;SDS011;27262;-35.248;149.138;2022-08-19T09:00:30;1.10;;;0.40;;
41532;SDS011;27262;-35.248;149.138;2022-08-19T09:03:06;3.40;;;0.52;;
41532;SDS011;27262;-35.248;149.138;2022-08-19T09:12:06;0.52;;;0.30;;
41532;SDS011;27262;-35.248;149.138;2022-08-19T09:17:17;2.00;;;0.57;;
41532;SDS011;27262;-35.248;149.138;2022-08-19T09:22:52;1.08;;;0.50;;
41532;SDS011;27262;-35.248;149.138;2022-08-19T09:25:23;2.20;;;1.05;;
41532;SDS011;27262;-35.248;149.138;2022-08-19T09:27:56;1.40;;;0.60;;
41532;SDS011;27262;-35.248;149.138;2022-08-19T09:30:48;2.33;;;0.50;;
41532;SDS011;27262;-35.248;149.138;2022-08-19T09:33:20;2.45;;;0.40;;
41532;SDS011;27262;-35.248;149.138;2022-08-19T09:36:00;2.53;;;0.45;;
41532;SDS011;27262;-35.248;149.138;2022-08-19T09:38:35;1.42;;;0.80;;
41532;SDS011;27262;-35.248;149.138;2022-08-19T09:41:10;2.78;;;0.75;;
41532;SDS011;27262;-35.248;149.138;2022-08-19T09:43:44;2.78;;;0.55;;
41532;SDS011;27262;-35.248;149.138;2022-08-19T09:46:19;1.38;;;0.45;;
41532;SDS011;27262;-35.248;149.138;2022-08-19T09:48:51;1.55;;;0.50;;
41532;SDS011;27262;-35.248;149.138;2022-08-19T09:51:24;1.42;;;0.50;;
41532;SDS011;27262;-35.248;149.138;2022-08-19T09:54:01;1.60;;;0.50;;
41532;SDS011;27262;-35.248;149.138;2022-08-19T09:56:37;0.85;;;0.50;;
41532;SDS011;27262;-35.248;149.138;2022-08-19T09:59:08;2.20;;;0.55;;
41532;SDS011;27262;-35.248;149.138;2022-08-19T10:01:40;1.08;;;0.43;;
41532;SDS011;27262;-35.248;149.138;2022-08-19T10:04:11;0.95;;;0.60;;
41532;SDS011;27262;-35.248;149.138;2022-08-19T10:06:48;0.90;;;0.47;;
41532;SDS011;27262;-35.248;149.138;2022-08-19T10:09:21;0.93;;;0.40;;
41532;SDS011;27262;-35.248;149.138;2022-08-19T10:12:00;1.60;;;0.50;;
41532;SDS011;27262;-35.248;149.138;2022-08-19T10:14:37;0.68;;;0.30;;
41532;SDS011;27262;-35.248;149.138;2022-08-19T10:17:07;1.10;;;0.30;;
41532;SDS011;27262;-35.248;149.138;2022-08-19T10:19:47;1.55;;;0.40;;
41532;SDS011;27262;-35.248;149.138;2022-08-19T10:22:21;0.70;;;0.40;;
41532;SDS011;27262;-35.248;149.138;2022-08-19T10:24:52;0.98;;;0.40;;
41532;SDS011;27262;-35.248;149.138;2022-08-19T10:27:23;1.45;;;0.35;;
41532;SDS011;27262;-35.248;149.138;2022-08-19T10:29:57;2.97;;;0.60;;
41532;SDS011;27262;-35.248;149.138;2022-08-19T10:32:28;1.48;;;0.40;;
41532;SDS011;27262;-35.248;149.138;2022-08-19T10:35:00;1.13;;;0.47;;
41532;SDS011;27262;-35.248;149.138;2022-08-19T10:37:41;1.02;;;0.40;;
41532;SDS011;27262;-35.248;149.138;2022-08-19T10:40:23;0.77;;;0.40;;
41532;SDS011;27262;-35.248;149.138;2022-08-19T10:42:55;0.85;;;0.35;;
41532;SDS011;27262;-35.248;149.138;2022-08-19T10:45:25;1.15;;;0.30;;
41532;SDS011;27262;-35.248;149.138;2022-08-19T10:47:55;1.27;;;0.50;;
41532;SDS011;27262;-35.248;149.138;2022-08-19T10:50:26;1.00;;;0.43;;
41532;SDS011;27262;-35.248;149.138;2022-08-19T10:53:14;1.17;;;0.45;;
41532;SDS011;27262;-35.248;149.138;2022-08-19T10:55:46;2.13;;;0.38;;
41532;SDS011;27262;-35.248;149.138;2022-08-19T10:58:34;2.03;;;0.30;;
41532;SDS011;27262;-35.248;149.138;2022-08-19T11:01:04;1.15;;;0.40;;
41532;SDS011;27262;-35.248;149.138;2022-08-19T11:03:35;0.77;;;0.30;;
41532;SDS011;27262;-35.248;149.138;2022-08-19T11:06:07;0.45;;;0.30;;
41532;SDS011;27262;-35.248;149.138;2022-08-19T11:08:38;0.73;;;0.40;;
41532;SDS011;27262;-35.248;149.138;2022-08-19T11:11:10;1.77;;;0.40;;
41532;SDS011;27262;-35.248;149.138;2022-08-19T11:13:41;0.73;;;0.28;;
41532;SDS011;27262;-35.248;149.138;2022-08-19T11:16:14;2.47;;;0.50;;
41532;SDS011;27262;-35.248;149.138;2022-08-19T11:18:50;1.48;;;0.40;;
41532;SDS011;27262;-35.248;149.138;2022-08-19T11:21:27;0.95;;;0.40;;
41532;SDS011;27262;-35.248;149.138;2022-08-19T11:24:01;0.60;;;0.40;;
41532;SDS011;27262;-35.248;149.138;2022-08-19T11:26:38;1.23;;;0.40;;
41532;SDS011;27262;-35.248;149.138;2022-08-19T11:29:10;2.63;;;0.50;;
41532;SDS011;27262;-35.248;149.138;2022-08-19T11:31:43;0.70;;;0.30;;
41532;SDS011;27262;-35.248;149.138;2022-08-19T11:34:16;3.75;;;0.40;;
41532;SDS011;27262;-35.248;149.138;2022-08-19T11:36:56;0.50;;;0.20;;
41532;SDS011;27262;-35.248;149.138;2022-08-19T11:39:29;1.40;;;0.35;;
41532;SDS011;27262;-35.248;149.138;2022-08-19T11:42:01;1.13;;;0.20;;
41532;SDS011;27262;-35.248;149.138;2022-08-19T11:44:52;1.23;;;0.30;;
41532;SDS011;27262;-35.248;149.138;2022-08-19T11:47:23;2.30;;;0.40;;
41532;SDS011;27262;-35.248;149.138;2022-08-19T11:49:54;0.63;;;0.30;;
41532;SDS011;27262;-35.248;149.138;2022-08-19T11:52:25;0.88;;;0.40;;
41532;SDS011;27262;-35.248;149.138;2022-08-19T11:54:55;2.47;;;0.32;;
41532;SDS011;27262;-35.248;149.138;2022-08-19T11:57:25;0.65;;;0.28;;
41532;SDS011;27262;-35.248;149.138;2022-08-19T11:59:56;1.08;;;0.35;;
41532;SDS011;27262;-35.248;149.138;2022-08-19T12:02:26;1.33;;;0.30;;
41532;SDS011;27262;-35.248;149.138;2022-08-19T12:04:56;1.33;;;0.43;;
41532;SDS011;27262;-35.248;149.138;2022-08-19T12:07:27;0.75;;;0.30;;
41532;SDS011;27262;-35.248;149.138;2022-08-19T12:09:59;0.80;;;0.40;;
41532;SDS011;27262;-35.248;149.138;2022-08-19T12:12:30;1.42;;;0.50;;
41532;SDS011;27262;-35.248;149.138;2022-08-19T12:15:01;0.98;;;0.30;;
41532;SDS011;27262;-35.248;149.138;2022-08-19T12:17:32;1.63;;;0.50;;
41532;SDS011;27262;-35.248;149.138;2022-08-19T12:20:02;0.50;;;0.30;;
41532;SDS011;27262;-35.248;149.138;2022-08-19T12:22:35;0.60;;;0.40;;
41532;SDS011;27262;-35.248;149.138;2022-08-19T12:25:08;1.02;;;0.30;;
41532;SDS011;27262;-35.248;149.138;2022-08-19T12:27:40;0.35;;;0.20;;
41532;SDS011;27262;-35.248;149.138;2022-08-19T12:30:23;0.80;;;0.30;;
41532;SDS011;27262;-35.248;149.138;2022-08-19T12:32:53;1.55;;;0.40;;
41532;SDS011;27262;-35.248;149.138;2022-08-19T12:35:24;0.52;;;0.30;;
41532;SDS011;27262;-35.248;149.138;2022-08-19T12:37:54;4.63;;;0.35;;
41532;SDS011;27262;-35.248;149.138;2022-08-19T12:40:25;0.82;;;0.25;;
41532;SDS011;27262;-35.248;149.138;2022-08-19T12:42:56;0.75;;;0.30;;
41532;SDS011;27262;-35.248;149.138;2022-08-19T12:45:26;1.13;;;0.38;;
41532;SDS011;27262;-35.248;149.138;2022-08-19T12:47:57;1.10;;;0.40;;
41532;SDS011;27262;-35.248;149.138;2022-08-19T12:50:47;0.65;;;0.32;;
41532;SDS011;27262;-35.248;149.138;2022-08-19T12:53:18;0.70;;;0.40;;
41532;SDS011;27262;-35.248;149.138;2022-08-19T12:55:53;1.25;;;0.30;;
41532;SDS011;27262;-35.248;149.138;2022-08-19T12:58:26;0.50;;;0.40;;
41532;SDS011;27262;-35.248;149.138;2022-08-19T13:00:57;1.17;;;0.20;;
41532;SDS011;27262;-35.248;149.138;2022-08-19T13:03:27;1.27;;;0.43;;
41532;SDS011;27262;-35.248;149.138;2022-08-19T13:05:58;0.93;;;0.45;;
41532;SDS011;27262;-35.248;149.138;2022-08-19T13:08:28;1.10;;;0.52;;
41532;SDS011;27262;-35.248;149.138;2022-08-19T13:11:05;0.73;;;0.50;;
41532;SDS011;27262;-35.248;149.138;2022-08-19T13:13:47;0.77;;;0.32;;
41532;SDS011;27262;-35.248;149.138;2022-08-19T13:16:19;1.77;;;0.50;;
41532;SDS011;27262;-35.248;149.138;2022-08-19T13:18:50;1.52;;;0.30;;
41532;SDS011;27262;-35.248;149.138;2022-08-19T13:21:22;0.45;;;0.30;;
41532;SDS011;27262;-35.248;149.138;2022-08-19T13:23:56;0.55;;;0.22;;
41532;SDS011;27262;-35.248;149.138;2022-08-19T13:26:27;0.25;;;0.20;;
41532;SDS011;27262;-35.248;149.138;2022-08-19T13:28:57;1.75;;;0.40;;
41532;SDS011;27262;-35.248;149.138;2022-08-19T13:31:45;1.00;;;0.30;;
41532;SDS011;27262;-35.248;149.138;2022-08-19T13:34:34;1.98;;;0.63;;
41532;SDS011;27262;-35.248;149.138;2022-08-19T13:37:05;2.40;;;0.63;;
41532;SDS011;27262;-35.248;149.138;2022-08-19T13:39:36;1.20;;;0.50;;
41532;SDS011;27262;-35.248;149.138;2022-08-19T13:42:06;2.10;;;0.40;;
41532;SDS011;27262;-35.248;149.138;2022-08-19T13:44:36;1.00;;;0.60;;
41532;SDS011;27262;-35.248;149.138;2022-08-19T13:47:07;1.42;;;0.50;;
41532;SDS011;27262;-35.248;149.138;2022-08-19T13:49:41;1.65;;;0.80;;
41532;SDS011;27262;-35.248;149.138;2022-08-19T13:52:12;3.13;;;0.60;;
41532;SDS011;27262;-35.248;149.138;2022-08-19T13:54:42;0.77;;;0.52;;
41532;SDS011;27262;-35.248;149.138;2022-08-19T13:57:13;1.25;;;0.75;;
41532;SDS011;27262;-35.248;149.138;2022-08-19T13:59:43;1.55;;;1.00;;
41532;SDS011;27262;-35.248;149.138;2022-08-19T14:02:13;0.95;;;0.73;;
41532;SDS011;27262;-35.248;149.138;2022-08-19T14:04:43;2.08;;;0.90;;
41532;SDS011;27262;-35.248;149.138;2022-08-19T14:07:14;1.88;;;0.90;;
41532;SDS011;27262;-35.248;149.138;2022-08-19T14:09:44;1.30;;;0.70;;
41532;SDS011;27262;-35.248;149.138;2022-08-19T14:12:18;1.48;;;0.80;;
41532;SDS011;27262;-35.248;149.138;2022-08-19T14:14:55;3.20;;;0.93;;
41532;SDS011;27262;-35.248;149.138;2022-08-19T14:17:25;3.08;;;1.30;;
41532;SDS011;27262;-35.248;149.138;2022-08-19T14:20:00;3.35;;;0.90;;
41532;SDS011;27262;-35.248;149.138;2022-08-19T14:22:44;4.55;;;0.93;;
41532;SDS011;27262;-35.248;149.138;2022-08-19T14:25:18;3.75;;;1.15;;
41532;SDS011;27262;-35.248;149.138;2022-08-19T14:27:52;4.45;;;1.42;;
41532;SDS011;27262;-35.248;149.138;2022-08-19T14:30:24;4.15;;;1.20;;
41532;SDS011;27262;-35.248;149.138;2022-08-19T14:32:57;3.53;;;0.93;;
41532;SDS011;27262;-35.248;149.138;2022-08-19T14:35:30;5.18;;;1.40;;
41532;SDS011;27262;-35.248;149.138;2022-08-19T14:38:04;4.95;;;1.70;;
41532;SDS011;27262;-35.248;149.138;2022-08-19T14:41:16;4.28;;;1.20;;
41532;SDS011;27262;-35.248;149.138;2022-08-19T14:43:51;4.13;;;1.10;;
41532;SDS011;27262;-35.248;149.138;2022-08-19T14:46:23;5.10;;;1.00;;
41532;SDS011;27262;-35.248;149.138;2022-08-19T14:48:56;3.20;;;0.90;;
41532;SDS011;27262;-35.248;149.138;2022-08-19T14:51:26;3.72;;;1.50;;
41532;SDS011;27262;-35.248;149.138;2022-08-19T14:53:57;3.28;;;1.25;;
41532;SDS011;27262;-35.248;149.138;2022-08-19T14:56:28;4.68;;;1.33;;
41532;SDS011;27262;-35.248;149.138;2022-08-19T14:58:59;5.70;;;1.48;;
41532;SDS011;27262;-35.248;149.138;2022-08-19T15:01:29;4.85;;;1.23;;
41532;SDS011;27262;-35.248;149.138;2022-08-19T15:04:00;5.15;;;1.63;;